createdAt,value
2023-08-01T00:00:36.904Z,16.34
2023-08-01T00:01:36.985Z,16.25
2023-08-01T00:02:36.891Z,16.29
2023-08-01T00:03:36.854Z,16.39
2023-08-01T00:04:36.827Z,16.28
2023-08-01T00:05:36.843Z,16.39
2023-08-01T00:06:36.813Z,16.39
2023-08-01T00:07:38.120Z,16.26
2023-08-01T00:08:36.837Z,16.36
2023-08-01T00:09:36.772Z,16.34
2023-08-01T00:10:36.790Z,16.36
2023-08-01T00:11:36.791Z,16.34
2023-08-01T00:12:36.766Z,16.32
2023-08-01T00:13:36.840Z,16.40
2023-08-01T00:14:36.817Z,16.37
2023-08-01T00:15:36.766Z,16.36
2023-08-01T00:16:36.800Z,16.37
2023-08-01T00:17:36.753Z,16.40
2023-08-01T00:18:36.748Z,16.40
2023-08-01T00:19:36.762Z,16.40
2023-08-01T00:20:36.683Z,16.43
2023-08-01T00:21:36.712Z,16.44
2023-08-01T00:22:36.674Z,16.43
2023-08-01T00:23:36.682Z,16.46
2023-08-01T00:24:36.672Z,16.43
2023-08-01T00:25:36.742Z,16.51
2023-08-01T00:26:36.637Z,16.42
2023-08-01T00:27:40.040Z,16.49
2023-08-01T00:28:36.629Z,16.51
2023-08-01T00:29:36.647Z,16.49
2023-08-01T00:30:36.622Z,16.51
2023-08-01T00:31:36.721Z,16.47
2023-08-01T00:32:36.646Z,16.47
2023-08-01T00:33:36.577Z,16.58
2023-08-01T00:34:36.568Z,16.52
2023-08-01T00:35:37.352Z,16.54
2023-08-01T00:36:36.571Z,16.44
2023-08-01T00:37:36.627Z,16.49
2023-08-01T00:38:36.532Z,16.55
2023-08-01T00:39:36.523Z,16.40
2023-08-01T00:40:36.536Z,16.54
2023-08-01T00:41:36.525Z,16.59
2023-08-01T00:42:36.507Z,16.55
2023-08-01T00:43:36.551Z,16.55
2023-08-01T00:44:36.497Z,16.54
2023-08-01T00:45:36.521Z,16.61
2023-08-01T00:46:36.477Z,16.55
2023-08-01T00:47:36.497Z,16.64
2023-08-01T00:48:36.470Z,16.59
2023-08-01T00:49:36.486Z,16.62
2023-08-01T00:50:36.415Z,16.52
2023-08-01T00:51:36.424Z,16.52
2023-08-01T00:52:36.417Z,16.59
2023-08-01T00:53:36.407Z,16.57
2023-08-01T00:54:36.461Z,16.64
2023-08-01T00:55:36.403Z,16.55
2023-08-01T00:56:36.372Z,16.54
2023-08-01T00:57:36.376Z,16.54
2023-08-01T00:58:36.361Z,16.43
2023-08-01T00:59:36.443Z,16.59
2023-08-01T01:00:36.406Z,16.59
2023-08-01T01:01:36.383Z,16.54
2023-08-01T01:02:36.456Z,16.40
2023-08-01T01:03:36.323Z,16.49
2023-08-01T01:04:36.351Z,16.54
2023-08-01T01:05:36.301Z,16.54
2023-08-01T01:06:36.327Z,16.54
2023-08-01T01:07:36.288Z,16.51
2023-08-01T01:08:36.266Z,16.42
2023-08-01T01:09:36.283Z,16.43
2023-08-01T01:10:36.273Z,16.52
2023-08-01T01:11:36.253Z,16.51
2023-08-01T01:12:36.331Z,16.42
2023-08-01T01:13:36.307Z,16.49
2023-08-01T01:14:36.223Z,16.49
2023-08-01T01:15:36.218Z,16.51
2023-08-01T01:16:36.218Z,16.43
2023-08-01T01:17:36.206Z,16.46
2023-08-01T01:18:36.235Z,16.54
2023-08-01T01:19:36.178Z,16.44
2023-08-01T01:20:36.178Z,16.54
2023-08-01T01:21:36.161Z,16.47
2023-08-01T01:22:36.175Z,16.46
2023-08-01T01:23:36.135Z,16.46
2023-08-01T01:24:36.160Z,16.49
2023-08-01T01:25:36.150Z,16.55
2023-08-01T01:26:36.132Z,16.54
2023-08-01T01:27:36.123Z,16.54
2023-08-01T01:28:36.151Z,16.58
2023-08-01T01:29:36.101Z,16.64
2023-08-01T01:30:36.143Z,16.58
2023-08-01T01:31:36.079Z,16.61
2023-08-01T01:32:36.080Z,16.76
2023-08-01T01:33:36.104Z,16.69
2023-08-01T01:34:36.034Z,16.73
2023-08-01T01:35:36.037Z,16.62
2023-08-01T01:36:36.045Z,16.61
2023-08-01T01:37:36.038Z,16.64
2023-08-01T01:38:35.996Z,16.61
2023-08-01T01:39:36.078Z,16.61
2023-08-01T01:40:35.991Z,16.62
2023-08-01T01:41:35.987Z,16.58
2023-08-01T01:42:35.970Z,16.57
2023-08-01T01:43:35.974Z,16.65
2023-08-01T01:44:35.990Z,16.62
2023-08-01T01:45:36.026Z,16.62
2023-08-01T01:46:36.024Z,16.58
2023-08-01T01:47:35.984Z,16.65
2023-08-01T01:48:35.913Z,16.59
2023-08-01T01:49:35.916Z,16.64
2023-08-01T01:50:35.910Z,16.57
2023-08-01T01:51:35.950Z,16.69
2023-08-01T01:52:35.894Z,16.55
2023-08-01T01:53:35.890Z,16.55
2023-08-01T01:54:35.885Z,16.57
2023-08-01T01:55:35.874Z,16.69
2023-08-01T01:56:35.899Z,16.58
2023-08-01T01:57:35.994Z,16.57
2023-08-01T01:58:35.836Z,16.57
2023-08-01T01:59:35.831Z,16.58
2023-08-01T02:00:35.838Z,16.58
2023-08-01T02:01:35.815Z,16.51
2023-08-01T02:02:35.796Z,16.58
2023-08-01T02:03:35.819Z,16.59
2023-08-01T02:04:35.869Z,16.57
2023-08-01T02:05:35.830Z,16.47
2023-08-01T02:06:35.759Z,16.44
2023-08-01T02:07:35.777Z,16.47
2023-08-01T02:08:35.748Z,16.43
2023-08-01T02:09:35.752Z,16.44
2023-08-01T02:10:35.759Z,16.46
2023-08-01T02:11:35.788Z,16.46
2023-08-01T02:12:35.727Z,16.51
2023-08-01T02:13:35.744Z,16.44
2023-08-01T02:14:35.718Z,16.58
2023-08-01T02:15:35.714Z,16.47
2023-08-01T02:16:35.852Z,16.44
2023-08-01T02:17:35.765Z,16.51
2023-08-01T02:18:35.668Z,16.37
2023-08-01T02:19:35.666Z,16.40
2023-08-01T02:20:35.653Z,16.43
2023-08-01T02:21:35.644Z,16.43
2023-08-01T02:22:35.637Z,16.43
2023-08-01T02:23:35.701Z,16.42
2023-08-01T02:24:35.625Z,16.43
2023-08-01T02:25:35.624Z,16.47
2023-08-01T02:26:35.599Z,16.40
2023-08-01T02:27:35.602Z,16.39
2023-08-01T02:28:35.671Z,16.43
2023-08-01T02:29:35.621Z,16.43
2023-08-01T02:30:35.578Z,16.44
2023-08-01T02:31:35.607Z,16.47
2023-08-01T02:32:35.658Z,16.42
2023-08-01T02:33:35.658Z,16.39
2023-08-01T02:34:35.530Z,16.42
2023-08-01T02:35:35.570Z,16.47
2023-08-01T02:36:35.531Z,16.37
2023-08-01T02:37:35.520Z,16.40
2023-08-01T02:38:35.539Z,16.44
2023-08-01T02:39:35.497Z,16.47
2023-08-01T02:40:35.483Z,16.40
2023-08-01T02:41:35.504Z,16.46
2023-08-01T02:42:35.474Z,16.42
2023-08-01T02:43:35.471Z,16.39
2023-08-01T02:44:35.508Z,16.51
2023-08-01T02:45:35.465Z,16.43
2023-08-01T02:46:35.444Z,16.46
2023-08-01T02:47:35.494Z,16.40
2023-08-01T02:48:35.420Z,16.42
2023-08-01T02:49:35.444Z,16.46
2023-08-01T02:50:35.910Z,16.39
2023-08-01T02:51:35.410Z,16.43
2023-08-01T02:52:42.971Z,16.39
2023-08-01T02:53:35.392Z,16.36
2023-08-01T02:54:35.396Z,16.39
2023-08-01T02:55:35.366Z,16.44
2023-08-01T02:56:35.392Z,16.40
2023-08-01T02:57:35.359Z,16.40
2023-08-01T02:58:35.416Z,16.39
2023-08-01T02:59:35.340Z,16.44
2023-08-01T03:00:35.329Z,16.43
2023-08-01T03:01:35.374Z,16.43
2023-08-01T03:02:35.341Z,16.46
2023-08-01T03:03:35.379Z,16.46
2023-08-01T03:04:45.889Z,16.42
2023-08-01T03:05:36.279Z,16.47
2023-08-01T03:06:35.268Z,16.46
2023-08-01T03:07:35.265Z,16.34
2023-08-01T03:08:35.312Z,16.47
2023-08-01T03:09:35.248Z,16.49
2023-08-01T03:10:37.164Z,16.44
2023-08-01T03:11:35.229Z,16.49
2023-08-01T03:12:35.224Z,16.49
2023-08-01T03:13:35.235Z,16.51
2023-08-01T03:14:35.220Z,16.47
2023-08-01T03:15:35.195Z,16.49
2023-08-01T03:16:35.183Z,16.55
2023-08-01T03:17:35.218Z,16.51
2023-08-01T03:18:35.152Z,16.44
2023-08-01T03:19:35.540Z,16.51
2023-08-01T03:20:35.183Z,16.54
2023-08-01T03:21:35.169Z,16.51
2023-08-01T03:22:35.128Z,16.54
2023-08-01T03:23:35.126Z,16.58
2023-08-01T03:24:35.111Z,16.61
2023-08-01T03:25:35.147Z,16.59
2023-08-01T03:26:35.117Z,16.65
2023-08-01T03:27:35.118Z,16.57
2023-08-01T03:28:35.230Z,16.55
2023-08-01T03:29:35.105Z,16.64
2023-08-01T03:30:35.119Z,16.61
2023-08-01T03:31:35.105Z,16.55
2023-08-01T03:32:35.045Z,16.51
2023-08-01T03:33:35.037Z,16.61
2023-08-01T03:34:35.080Z,16.61
2023-08-01T03:35:35.036Z,16.64
2023-08-01T03:36:35.035Z,16.65
2023-08-01T03:37:35.108Z,16.65
2023-08-01T03:38:34.993Z,16.64
2023-08-01T03:39:34.990Z,16.64
2023-08-01T03:40:34.966Z,16.58
2023-08-01T03:41:35.047Z,16.59
2023-08-01T03:42:34.956Z,16.59
2023-08-01T03:43:34.990Z,16.62
2023-08-01T03:44:34.960Z,16.69
2023-08-01T03:45:34.993Z,16.69
2023-08-01T03:46:34.938Z,16.58
2023-08-01T03:47:34.977Z,16.59
2023-08-01T03:48:34.899Z,16.59
2023-08-01T03:49:34.970Z,16.69
2023-08-01T03:50:34.879Z,16.61
2023-08-01T03:51:34.982Z,16.62
2023-08-01T03:52:34.883Z,16.70
2023-08-01T03:53:34.880Z,16.58
2023-08-01T03:54:34.847Z,16.67
2023-08-01T03:55:34.884Z,16.58
2023-08-01T03:56:34.893Z,16.62
2023-08-01T03:57:34.870Z,16.76
2023-08-01T03:58:34.814Z,16.62
2023-08-01T03:59:34.855Z,16.69
2023-08-01T04:00:34.807Z,16.65
2023-08-01T04:01:34.874Z,16.76
2023-08-01T04:02:34.813Z,16.74
2023-08-01T04:03:34.839Z,16.65
2023-08-01T04:04:34.762Z,16.73
2023-08-01T04:05:34.759Z,16.77
2023-08-01T04:06:34.764Z,16.69
2023-08-01T04:07:34.819Z,16.76
2023-08-01T04:08:34.777Z,16.80
2023-08-01T04:09:34.793Z,16.77
2023-08-01T04:10:34.768Z,16.73
2023-08-01T04:11:34.737Z,16.74
2023-08-01T04:12:34.709Z,16.76
2023-08-01T04:13:34.783Z,16.84
2023-08-01T04:14:34.688Z,16.76
2023-08-01T04:15:34.730Z,16.73
2023-08-01T04:16:34.680Z,16.80
2023-08-01T04:17:34.771Z,16.77
2023-08-01T04:18:34.726Z,16.76
2023-08-01T04:19:34.713Z,16.70
2023-08-01T04:20:34.633Z,16.80
2023-08-01T04:21:34.625Z,16.74
2023-08-01T04:22:34.673Z,16.82
2023-08-01T04:23:34.605Z,16.74
2023-08-01T04:24:34.609Z,16.79
2023-08-01T04:25:34.691Z,16.84
2023-08-01T04:26:34.579Z,16.83
2023-08-01T04:27:34.594Z,16.84
2023-08-01T04:28:34.635Z,16.84
2023-08-01T04:29:34.561Z,16.90
2023-08-01T04:30:34.614Z,16.90
2023-08-01T04:31:34.600Z,16.83
2023-08-01T04:32:34.529Z,16.87
2023-08-01T04:33:34.518Z,16.79
2023-08-01T04:34:34.527Z,16.79
2023-08-01T04:35:34.519Z,16.77
2023-08-01T04:36:34.568Z,16.73
2023-08-01T04:37:34.485Z,16.79
2023-08-01T04:38:34.508Z,16.72
2023-08-01T04:39:34.543Z,16.73
2023-08-01T04:40:34.475Z,16.69
2023-08-01T04:41:34.449Z,16.74
2023-08-01T04:42:34.487Z,16.74
2023-08-01T04:43:34.426Z,16.69
2023-08-01T04:44:34.434Z,16.77
2023-08-01T04:45:34.451Z,16.73
2023-08-01T04:46:34.490Z,16.72
2023-08-01T04:47:34.452Z,16.80
2023-08-01T04:48:34.415Z,16.65
2023-08-01T04:49:34.412Z,16.70
2023-08-01T04:50:34.375Z,16.74
2023-08-01T04:51:34.359Z,16.76
2023-08-01T04:52:34.392Z,16.74
2023-08-01T04:53:34.358Z,16.73
2023-08-01T04:54:34.355Z,16.84
2023-08-01T04:55:34.399Z,16.79
2023-08-01T04:56:34.332Z,16.83
2023-08-01T04:57:34.337Z,16.82
2023-08-01T04:58:34.361Z,16.73
2023-08-01T04:59:34.297Z,16.80
2023-08-01T05:00:34.321Z,16.80
2023-08-01T05:01:34.289Z,16.82
2023-08-01T05:02:34.286Z,16.82
2023-08-01T05:03:34.386Z,16.88
2023-08-01T05:04:34.256Z,16.88
2023-08-01T05:05:34.239Z,16.83
2023-08-01T05:06:34.237Z,16.88
2023-08-01T05:07:34.284Z,16.92
2023-08-01T05:08:34.227Z,16.95
2023-08-01T05:09:34.202Z,17.01
2023-08-01T05:10:34.227Z,16.97
2023-08-01T05:11:34.194Z,16.94
2023-08-01T05:12:34.206Z,16.99
2023-08-01T05:13:34.234Z,17.01
2023-08-01T05:14:34.164Z,17.04
2023-08-01T05:15:34.158Z,16.98
2023-08-01T05:16:34.194Z,17.09
2023-08-01T05:17:34.181Z,17.10
2023-08-01T05:18:34.144Z,17.12
2023-08-01T05:19:34.185Z,17.04
2023-08-01T05:20:34.177Z,17.06
2023-08-01T05:21:34.153Z,17.12
2023-08-01T05:22:34.103Z,17.10
2023-08-01T05:23:34.107Z,17.17
2023-08-01T05:24:34.093Z,17.12
2023-08-01T05:25:34.095Z,17.13
2023-08-01T05:26:34.091Z,17.14
2023-08-01T05:27:34.091Z,17.22
2023-08-01T05:28:34.089Z,17.20
2023-08-01T05:29:34.026Z,17.24
2023-08-01T05:30:34.071Z,17.13
2023-08-01T05:31:34.065Z,17.25
2023-08-01T05:32:34.072Z,17.24
2023-08-01T05:33:34.015Z,17.22
2023-08-01T05:34:34.013Z,17.24
2023-08-01T05:35:34.046Z,17.20
2023-08-01T05:36:33.977Z,17.19
2023-08-01T05:37:33.961Z,17.24
2023-08-01T05:38:33.973Z,17.24
2023-08-01T05:39:34.013Z,17.27
2023-08-01T05:40:33.987Z,17.17
2023-08-01T05:41:33.968Z,17.17
2023-08-01T05:42:33.947Z,17.20
2023-08-01T05:43:33.921Z,17.25
2023-08-01T05:44:34.138Z,17.28
2023-08-01T05:45:34.875Z,17.14
2023-08-01T05:46:33.987Z,17.17
2023-08-01T05:47:34.137Z,17.28
2023-08-01T05:48:33.881Z,17.27
2023-08-01T05:49:33.973Z,17.34
2023-08-01T05:50:34.395Z,17.31
2023-08-01T05:51:34.049Z,17.30
2023-08-01T05:52:33.849Z,17.25
2023-08-01T05:53:33.820Z,17.38
2023-08-01T05:54:33.821Z,17.34
2023-08-01T05:55:33.816Z,17.28
2023-08-01T05:56:34.052Z,17.32
2023-08-01T05:57:33.818Z,17.35
2023-08-01T05:58:33.778Z,17.35
2023-08-01T05:59:33.784Z,17.31
2023-08-01T06:00:33.841Z,17.30
2023-08-01T06:01:33.902Z,17.39
2023-08-01T06:02:33.781Z,17.43
2023-08-01T06:03:33.874Z,17.45
2023-08-01T06:04:33.757Z,17.47
2023-08-01T06:05:33.732Z,17.47
2023-08-01T06:06:33.756Z,17.50
2023-08-01T06:07:33.699Z,17.57
2023-08-01T06:08:34.161Z,17.57
2023-08-01T06:09:34.040Z,17.53
2023-08-01T06:10:34.403Z,17.50
2023-08-01T06:11:33.666Z,17.53
2023-08-01T06:12:33.670Z,17.50
2023-08-01T06:13:33.638Z,17.49
2023-08-01T06:14:33.648Z,17.57
2023-08-01T06:15:34.476Z,17.52
2023-08-01T06:16:33.722Z,17.59
2023-08-01T06:17:33.696Z,17.53
2023-08-01T06:18:33.618Z,17.57
2023-08-01T06:19:33.602Z,17.53
2023-08-01T06:20:33.622Z,17.63
2023-08-01T06:21:33.594Z,17.62
2023-08-01T06:22:33.694Z,17.63
2023-08-01T06:23:33.609Z,17.65
2023-08-01T06:24:33.564Z,17.68
2023-08-01T06:25:33.574Z,17.71
2023-08-01T06:26:33.546Z,17.69
2023-08-01T06:27:33.521Z,17.66
2023-08-01T06:28:33.581Z,17.66
2023-08-01T06:29:33.499Z,17.66
2023-08-01T06:30:34.091Z,17.57
2023-08-01T06:31:33.550Z,17.65
2023-08-01T06:32:33.564Z,17.66
2023-08-01T06:33:33.471Z,17.63
2023-08-01T06:34:33.505Z,17.75
2023-08-01T06:35:35.392Z,17.68
2023-08-01T06:36:33.831Z,17.71
2023-08-01T06:37:33.648Z,17.69
2023-08-01T06:38:33.478Z,17.59
2023-08-01T06:39:33.537Z,17.72
2023-08-01T06:40:33.850Z,17.69
2023-08-01T06:41:33.419Z,17.62
2023-08-01T06:42:33.418Z,17.56
2023-08-01T06:43:33.401Z,17.57
2023-08-01T06:44:33.389Z,17.49
2023-08-01T06:45:33.487Z,17.52
2023-08-01T06:46:33.479Z,17.46
2023-08-01T06:47:33.450Z,17.34
2023-08-01T06:48:33.918Z,17.37
2023-08-01T06:49:33.508Z,17.30
2023-08-01T06:50:33.406Z,17.13
2023-08-01T06:51:33.348Z,17.09
2023-08-01T06:52:33.668Z,17.04
2023-08-01T06:53:33.307Z,17.06
2023-08-01T06:54:33.501Z,17.04
2023-08-01T06:55:33.297Z,17.04
2023-08-01T06:56:33.316Z,17.07
2023-08-01T06:57:33.263Z,17.28
2023-08-01T06:58:33.519Z,17.13
2023-08-01T06:59:33.324Z,17.09
2023-08-01T07:00:33.263Z,17.06
2023-08-01T07:01:33.254Z,17.24
2023-08-01T07:02:33.243Z,17.30
2023-08-01T07:03:33.287Z,17.31
2023-08-01T07:04:33.224Z,17.28
2023-08-01T07:05:33.906Z,17.25
2023-08-01T07:06:33.217Z,17.35
2023-08-01T07:07:33.197Z,17.43
2023-08-01T07:08:33.592Z,17.50
2023-08-01T07:09:33.454Z,17.50
2023-08-01T07:10:33.205Z,17.56
2023-08-01T07:11:33.175Z,17.57
2023-08-01T07:12:33.177Z,17.57
2023-08-01T07:13:33.216Z,17.68
2023-08-01T07:14:33.155Z,17.78
2023-08-01T07:15:33.123Z,17.79
2023-08-01T07:16:33.119Z,17.83
2023-08-01T07:17:33.674Z,17.87
2023-08-01T07:18:33.160Z,17.87
2023-08-01T07:19:33.098Z,17.88
2023-08-01T07:20:33.083Z,17.84
2023-08-01T07:21:33.069Z,17.86
2023-08-01T07:22:33.080Z,17.78
2023-08-01T07:23:33.058Z,17.73
2023-08-01T07:24:33.077Z,17.83
2023-08-01T07:25:33.030Z,17.73
2023-08-01T07:26:33.032Z,17.79
2023-08-01T07:27:33.034Z,17.79
2023-08-01T07:28:33.029Z,17.76
2023-08-01T07:29:33.044Z,17.76
2023-08-01T07:30:33.028Z,17.72
2023-08-01T07:31:32.986Z,17.79
2023-08-01T07:32:33.028Z,17.84
2023-08-01T07:33:32.960Z,17.84
2023-08-01T07:34:32.968Z,17.84
2023-08-01T07:35:32.997Z,17.84
2023-08-01T07:36:32.966Z,17.86
2023-08-01T07:37:32.966Z,17.79
2023-08-01T07:38:33.059Z,17.79
2023-08-01T07:39:32.897Z,17.93
2023-08-01T07:40:32.906Z,17.91
2023-08-01T07:41:32.925Z,17.90
2023-08-01T07:42:32.890Z,17.94
2023-08-01T07:43:32.873Z,18.09
2023-08-01T07:44:32.893Z,18.12
2023-08-01T07:45:32.864Z,18.20
2023-08-01T07:46:32.853Z,18.23
2023-08-01T07:47:32.915Z,18.17
2023-08-01T07:48:32.835Z,18.24
2023-08-01T07:49:32.825Z,18.34
2023-08-01T07:50:32.810Z,18.20
2023-08-01T07:51:32.789Z,18.09
2023-08-01T07:52:32.841Z,18.05
2023-08-01T07:53:32.783Z,18.01
2023-08-01T07:54:32.846Z,17.83
2023-08-01T07:55:32.781Z,17.93
2023-08-01T07:56:32.844Z,18.05
2023-08-01T07:57:32.749Z,18.12
2023-08-01T07:58:32.804Z,18.15
2023-08-01T07:59:32.753Z,18.05
2023-08-01T08:00:32.780Z,18.02
2023-08-01T08:01:32.787Z,18.12
2023-08-01T08:02:32.752Z,18.27
2023-08-01T08:03:32.734Z,18.30
2023-08-01T08:04:32.764Z,18.49
2023-08-01T08:05:32.721Z,18.60
2023-08-01T08:06:32.682Z,18.66
2023-08-01T08:07:32.690Z,18.82
2023-08-01T08:08:32.743Z,18.74
2023-08-01T08:09:32.734Z,18.89
2023-08-01T08:10:32.770Z,19.00
2023-08-01T08:11:32.637Z,19.13
2023-08-01T08:12:32.641Z,18.94
2023-08-01T08:13:32.628Z,18.96
2023-08-01T08:14:32.618Z,18.89
2023-08-01T08:15:32.690Z,18.86
2023-08-01T08:16:32.703Z,18.88
2023-08-01T08:17:32.664Z,18.86
2023-08-01T08:18:32.666Z,18.81
2023-08-01T08:19:32.602Z,18.86
2023-08-01T08:20:32.849Z,18.79
2023-08-01T08:21:33.066Z,18.63
2023-08-01T08:22:32.565Z,18.68
2023-08-01T08:23:32.548Z,18.60
2023-08-01T08:24:32.541Z,18.67
2023-08-01T08:25:32.577Z,18.75
2023-08-01T08:26:32.776Z,18.70
2023-08-01T08:27:32.591Z,18.61
2023-08-01T08:28:32.596Z,18.74
2023-08-01T08:29:32.500Z,18.64
2023-08-01T08:30:32.552Z,18.52
2023-08-01T08:31:32.555Z,18.49
2023-08-01T08:32:32.490Z,18.51
2023-08-01T08:33:32.504Z,18.48
2023-08-01T08:34:32.596Z,18.31
2023-08-01T08:35:32.479Z,18.43
2023-08-01T08:36:32.634Z,18.58
2023-08-01T08:37:32.473Z,18.88
2023-08-01T08:38:32.452Z,18.79
2023-08-01T08:39:32.418Z,18.86
2023-08-01T08:40:32.432Z,18.85
2023-08-01T08:41:32.390Z,18.93
2023-08-01T08:42:32.413Z,18.98
2023-08-01T08:43:32.431Z,19.08
2023-08-01T08:44:32.380Z,19.17
2023-08-01T08:45:32.388Z,18.98
2023-08-01T08:46:32.574Z,18.94
2023-08-01T08:47:32.436Z,18.64
2023-08-01T08:48:33.028Z,18.61
2023-08-01T08:49:32.370Z,18.52
2023-08-01T08:50:32.508Z,18.52
2023-08-01T08:51:32.342Z,18.76
2023-08-01T08:52:32.564Z,18.96
2023-08-01T08:53:32.369Z,18.96
2023-08-01T08:54:32.295Z,19.08
2023-08-01T08:55:32.443Z,19.20
2023-08-01T08:56:32.273Z,19.01
2023-08-01T08:57:32.291Z,18.98
2023-08-01T08:58:32.520Z,19.16
2023-08-01T08:59:32.283Z,19.31
2023-08-01T09:00:32.425Z,19.45
2023-08-01T09:01:32.321Z,19.54
2023-08-01T09:02:32.301Z,19.44
2023-08-01T09:03:32.524Z,19.53
2023-08-01T09:04:32.249Z,19.57
2023-08-01T09:05:33.468Z,19.79
2023-08-01T09:06:32.171Z,20.14
2023-08-01T09:07:32.184Z,20.36
2023-08-01T09:08:33.226Z,20.67
2023-08-01T09:09:32.283Z,20.42
2023-08-01T09:10:34.123Z,20.75
2023-08-01T09:11:32.137Z,20.68
2023-08-01T09:12:32.127Z,20.82
2023-08-01T09:13:32.144Z,20.92
2023-08-01T09:14:32.138Z,21.28
2023-08-01T09:15:32.114Z,20.95
2023-08-01T09:16:32.186Z,21.07
2023-08-01T09:17:32.159Z,21.13
2023-08-01T09:18:32.198Z,20.68
2023-08-01T09:19:32.093Z,20.63
2023-08-01T09:20:32.867Z,20.52
2023-08-01T09:21:32.720Z,20.61
2023-08-01T09:22:33.221Z,20.75
2023-08-01T09:23:32.317Z,20.80
2023-08-01T09:24:32.236Z,20.85
2023-08-01T09:25:32.300Z,20.85
2023-08-01T09:26:32.006Z,21.03
2023-08-01T09:27:33.038Z,21.10
2023-08-01T09:28:32.040Z,21.22
2023-08-01T09:29:32.011Z,21.40
2023-08-01T09:30:32.002Z,21.16
2023-08-01T09:31:32.306Z,21.35
2023-08-01T09:32:32.016Z,21.13
2023-08-01T09:33:32.007Z,21.20
2023-08-01T09:34:31.975Z,20.92
2023-08-01T09:35:31.960Z,20.85
2023-08-01T09:36:31.933Z,21.08
2023-08-01T09:37:31.942Z,21.32
2023-08-01T09:38:31.966Z,21.03
2023-08-01T09:39:31.915Z,21.18
2023-08-01T09:40:31.902Z,21.34
2023-08-01T09:41:31.918Z,21.55
2023-08-01T09:42:31.886Z,21.66
2023-08-01T09:43:31.910Z,21.56
2023-08-01T09:44:31.966Z,21.62
2023-08-01T09:45:31.908Z,21.53
2023-08-01T09:46:31.901Z,21.48
2023-08-01T09:47:31.892Z,21.53
2023-08-01T09:48:32.021Z,21.56
2023-08-01T09:49:31.962Z,21.37
2023-08-01T09:50:31.836Z,21.62
2023-08-01T09:51:31.810Z,21.69
2023-08-01T09:52:31.817Z,21.53
2023-08-01T09:53:31.817Z,21.97
2023-08-01T09:54:31.825Z,22.19
2023-08-01T09:55:31.870Z,21.67
2023-08-01T09:56:31.823Z,21.80
2023-08-01T09:57:31.775Z,21.48
2023-08-01T09:58:31.771Z,21.41
2023-08-01T09:59:31.761Z,21.19
2023-08-01T10:00:31.760Z,21.11
2023-08-01T10:01:31.762Z,21.47
2023-08-01T10:02:31.946Z,21.43
2023-08-01T10:03:31.782Z,21.60
2023-08-01T10:04:31.836Z,21.63
2023-08-01T10:05:31.705Z,21.78
2023-08-01T10:06:31.701Z,22.01
2023-08-01T10:07:31.699Z,22.38
2023-08-01T10:08:31.745Z,22.34
2023-08-01T10:09:31.677Z,22.53
2023-08-01T10:10:31.671Z,22.61
2023-08-01T10:11:31.687Z,22.46
2023-08-01T10:12:31.709Z,22.56
2023-08-01T10:13:31.657Z,22.48
2023-08-01T10:14:31.651Z,22.33
2023-08-01T10:15:31.678Z,22.33
2023-08-01T10:16:31.622Z,22.33
2023-08-01T10:17:31.674Z,22.19
2023-08-01T10:18:31.643Z,22.06
2023-08-01T10:19:31.601Z,22.21
2023-08-01T10:20:31.585Z,22.46
2023-08-01T10:21:31.580Z,22.23
2023-08-01T10:22:31.551Z,22.23
2023-08-01T10:23:31.567Z,22.11
2023-08-01T10:24:31.564Z,21.85
2023-08-01T10:25:31.553Z,21.97
2023-08-01T10:26:31.529Z,21.74
2023-08-01T10:27:31.526Z,21.44
2023-08-01T10:28:31.536Z,20.82
2023-08-01T10:29:31.617Z,20.65
2023-08-01T10:30:31.534Z,20.44
2023-08-01T10:31:31.530Z,20.52
2023-08-01T10:32:31.484Z,20.36
2023-08-01T10:33:31.777Z,20.14
2023-08-01T10:34:31.468Z,20.12
2023-08-01T10:35:31.637Z,20.42
2023-08-01T10:36:31.467Z,20.85
2023-08-01T10:37:31.444Z,21.19
2023-08-01T10:38:31.427Z,21.48
2023-08-01T10:39:31.428Z,21.63
2023-08-01T10:40:31.422Z,21.91
2023-08-01T10:41:31.441Z,22.00
2023-08-01T10:42:31.400Z,22.06
2023-08-01T10:43:31.406Z,21.56
2023-08-01T10:44:31.385Z,21.58
2023-08-01T10:45:31.383Z,21.55
2023-08-01T10:46:31.367Z,21.51
2023-08-01T10:47:31.541Z,21.59
2023-08-01T10:48:31.354Z,21.50
2023-08-01T10:49:31.349Z,21.71
2023-08-01T10:50:31.325Z,21.88
2023-08-01T10:51:31.346Z,22.23
2023-08-01T10:52:31.331Z,22.38
2023-08-01T10:53:31.364Z,22.38
2023-08-01T10:54:31.367Z,22.34
2023-08-01T10:55:31.312Z,22.62
2023-08-01T10:56:31.297Z,22.78
2023-08-01T10:57:31.353Z,23.10
2023-08-01T10:58:31.260Z,23.22
2023-08-01T10:59:31.302Z,23.08
2023-08-01T11:00:31.254Z,22.81
2023-08-01T11:01:31.297Z,22.67
2023-08-01T11:02:31.274Z,22.53
2023-08-01T11:03:31.285Z,22.49
2023-08-01T11:04:31.288Z,22.76
2023-08-01T11:05:31.241Z,22.61
2023-08-01T11:06:31.216Z,22.30
2023-08-01T11:07:31.209Z,22.21
2023-08-01T11:08:31.187Z,22.01
2023-08-01T11:09:31.195Z,22.04
2023-08-01T11:10:31.214Z,22.01
2023-08-01T11:11:31.181Z,21.73
2023-08-01T11:12:31.155Z,21.75
2023-08-01T11:13:31.151Z,21.71
2023-08-01T11:14:31.256Z,21.65
2023-08-01T11:15:31.171Z,21.77
2023-08-01T11:16:31.124Z,22.21
2023-08-01T11:17:31.146Z,22.51
2023-08-01T11:18:31.095Z,22.89
2023-08-01T11:19:31.116Z,23.28
2023-08-01T11:20:31.090Z,23.78
2023-08-01T11:21:31.165Z,23.74
2023-08-01T11:22:31.989Z,23.86
2023-08-01T11:23:31.087Z,23.82
2023-08-01T11:24:31.056Z,23.44
2023-08-01T11:25:31.070Z,23.26
2023-08-01T11:26:31.080Z,22.98
2023-08-01T11:27:31.054Z,22.80
2023-08-01T11:28:31.011Z,22.34
2023-08-01T11:29:31.010Z,22.28
2023-08-01T11:30:30.996Z,22.13
2023-08-01T11:31:31.028Z,22.03
2023-08-01T11:32:31.019Z,22.18
2023-08-01T11:33:30.968Z,22.38
2023-08-01T11:34:31.069Z,22.61
2023-08-01T11:35:30.961Z,22.85
2023-08-01T11:36:30.949Z,23.23
2023-08-01T11:37:30.993Z,23.23
2023-08-01T11:38:31.100Z,23.55
2023-08-01T11:39:30.930Z,23.28
2023-08-01T11:40:30.914Z,23.22
2023-08-01T11:41:30.930Z,23.26
2023-08-01T11:42:30.910Z,22.83
2023-08-01T11:43:30.920Z,22.64
2023-08-01T11:44:30.910Z,22.86
2023-08-01T11:45:30.940Z,22.81
2023-08-01T11:46:30.864Z,23.03
2023-08-01T11:47:30.855Z,23.13
2023-08-01T11:48:30.835Z,23.25
2023-08-01T11:49:30.849Z,23.73
2023-08-01T11:50:30.850Z,23.74
2023-08-01T11:51:30.864Z,23.69
2023-08-01T11:52:30.816Z,23.84
2023-08-01T11:53:30.897Z,23.88
2023-08-01T11:54:30.778Z,23.78
2023-08-01T11:55:30.786Z,23.44
2023-08-01T11:56:30.847Z,23.29
2023-08-01T11:57:30.807Z,23.49
2023-08-01T11:58:30.752Z,23.11
2023-08-01T11:59:30.760Z,23.11
2023-08-01T12:00:30.758Z,22.80
2023-08-01T12:01:30.836Z,22.70
2023-08-01T12:02:30.803Z,22.59
2023-08-01T12:03:30.777Z,22.33
2023-08-01T12:04:30.821Z,22.21
2023-08-01T12:05:30.732Z,22.15
2023-08-01T12:06:30.728Z,21.97
2023-08-01T12:07:30.738Z,21.74
2023-08-01T12:08:30.657Z,21.74
2023-08-01T12:09:30.662Z,21.65
2023-08-01T12:10:30.671Z,21.59
2023-08-01T12:11:30.663Z,21.74
2023-08-01T12:12:30.651Z,22.19
2023-08-01T12:13:30.668Z,22.37
2023-08-01T12:14:30.662Z,22.51
2023-08-01T12:15:30.657Z,22.59
2023-08-01T12:16:30.736Z,22.43
2023-08-01T12:17:30.642Z,22.37
2023-08-01T12:19:30.626Z,22.33
2023-08-01T12:20:30.602Z,22.48
2023-08-01T12:21:30.595Z,22.53
2023-08-01T12:22:30.544Z,22.73
2023-08-01T12:23:30.608Z,22.78
2023-08-01T12:24:30.592Z,22.96
2023-08-01T12:25:30.685Z,23.06
2023-08-01T12:26:30.694Z,23.41
2023-08-01T12:27:30.548Z,23.23
2023-08-01T12:28:30.501Z,23.31
2023-08-01T12:29:31.117Z,23.15
2023-08-01T12:30:30.522Z,23.18
2023-08-01T12:31:30.510Z,22.98
2023-08-01T12:32:30.532Z,22.98
2023-08-01T12:33:30.534Z,22.74
2023-08-01T12:34:30.483Z,22.89
2023-08-01T12:35:30.535Z,23.17
2023-08-01T12:36:30.540Z,23.18
2023-08-01T12:37:30.490Z,23.26
2023-08-01T12:38:30.413Z,23.52
2023-08-01T12:39:30.430Z,23.64
2023-08-01T12:40:30.393Z,23.78
2023-08-01T12:41:30.446Z,23.63
2023-08-01T12:42:30.377Z,23.42
2023-08-01T12:43:30.420Z,23.15
2023-08-01T12:44:30.454Z,23.23
2023-08-01T12:45:30.432Z,23.26
2023-08-01T12:46:30.396Z,22.95
2023-08-01T12:47:30.386Z,23.17
2023-08-01T12:48:30.376Z,23.26
2023-08-01T12:49:30.427Z,23.28
2023-08-01T12:50:30.319Z,23.23
2023-08-01T12:51:30.321Z,23.28
2023-08-01T12:52:30.302Z,23.04
2023-08-01T12:53:30.365Z,22.59